sensor_id;sensor_type;location;lat;lon;timestamp;P1;durP1;ratioP1;P2;durP2;ratioP2
48014;SDS011;33780;51.034;7.120;2024-02-28T00:01:49;14.40;;;8.73;;
48014;SDS011;33780;51.034;7.120;2024-02-28T00:04:14;15.10;;;8.80;;
48014;SDS011;33780;51.034;7.120;2024-02-28T00:06:40;14.85;;;9.02;;
48014;SDS011;33780;51.034;7.120;2024-02-28T00:09:05;14.80;;;9.13;;
48014;SDS011;33780;51.034;7.120;2024-02-28T00:11:30;15.43;;;9.15;;
48014;SDS011;33780;51.034;7.120;2024-02-28T00:13:57;15.20;;;8.98;;
48014;SDS011;33780;51.034;7.120;2024-02-28T00:16:25;18.27;;;8.57;;
48014;SDS011;33780;51.034;7.120;2024-02-28T00:18:50;14.98;;;8.90;;
48014;SDS011;33780;51.034;7.120;2024-02-28T00:21:15;15.43;;;7.97;;
48014;SDS011;33780;51.034;7.120;2024-02-28T00:23:41;15.07;;;9.35;;
48014;SDS011;33780;51.034;7.120;2024-02-28T00:26:07;15.02;;;9.07;;
48014;SDS011;33780;51.034;7.120;2024-02-28T00:28:32;15.25;;;9.32;;
48014;SDS011;33780;51.034;7.120;2024-02-28T00:30:57;18.10;;;9.20;;
48014;SDS011;33780;51.034;7.120;2024-02-28T00:33:22;16.27;;;8.88;;
48014;SDS011;33780;51.034;7.120;2024-02-28T00:35:48;15.77;;;9.15;;
48014;SDS011;33780;51.034;7.120;2024-02-28T00:38:13;15.15;;;9.18;;
48014;SDS011;33780;51.034;7.120;2024-02-28T00:40:38;18.25;;;10.45;;
48014;SDS011;33780;51.034;7.120;2024-02-28T00:43:04;17.00;;;9.50;;
48014;SDS011;33780;51.034;7.120;2024-02-28T00:45:29;16.73;;;9.70;;
48014;SDS011;33780;51.034;7.120;2024-02-28T00:47:54;20.20;;;10.05;;
48014;SDS011;33780;51.034;7.120;2024-02-28T00:50:20;16.23;;;10.05;;
48014;SDS011;33780;51.034;7.120;2024-02-28T00:52:45;16.10;;;10.02;;
48014;SDS011;33780;51.034;7.120;2024-02-28T00:55:10;16.30;;;9.57;;
48014;SDS011;33780;51.034;7.120;2024-02-28T00:57:36;19.77;;;10.45;;
48014;SDS011;33780;51.034;7.120;2024-02-28T01:00:01;14.75;;;9.15;;
48014;SDS011;33780;51.034;7.120;2024-02-28T01:02:27;17.60;;;9.50;;
48014;SDS011;33780;51.034;7.120;2024-02-28T01:04:52;16.55;;;9.15;;
48014;SDS011;33780;51.034;7.120;2024-02-28T01:07:17;19.08;;;9.77;;
48014;SDS011;33780;51.034;7.120;2024-02-28T01:09:43;16.98;;;9.93;;
48014;SDS011;33780;51.034;7.120;2024-02-28T01:12:09;15.80;;;9.48;;
48014;SDS011;33780;51.034;7.120;2024-02-28T01:14:34;17.10;;;9.82;;
48014;SDS011;33780;51.034;7.120;2024-02-28T01:17:00;19.13;;;9.57;;
48014;SDS011;33780;51.034;7.120;2024-02-28T01:19:25;17.55;;;9.50;;
48014;SDS011;33780;51.034;7.120;2024-02-28T01:21:50;19.02;;;10.20;;
48014;SDS011;33780;51.034;7.120;2024-02-28T01:24:16;22.55;;;10.63;;
48014;SDS011;33780;51.034;7.120;2024-02-28T01:26:41;24.52;;;11.30;;
48014;SDS011;33780;51.034;7.120;2024-02-28T01:29:07;24.23;;;10.82;;
48014;SDS011;33780;51.034;7.120;2024-02-28T01:31:32;20.00;;;10.20;;
48014;SDS011;33780;51.034;7.120;2024-02-28T01:33:57;23.45;;;10.65;;
48014;SDS011;33780;51.034;7.120;2024-02-28T01:36:23;27.13;;;12.25;;
48014;SDS011;33780;51.034;7.120;2024-02-28T01:38:48;22.10;;;10.50;;
48014;SDS011;33780;51.034;7.120;2024-02-28T01:41:13;27.23;;;11.68;;
48014;SDS011;33780;51.034;7.120;2024-02-28T01:43:39;24.02;;;11.18;;
48014;SDS011;33780;51.034;7.120;2024-02-28T01:46:05;23.17;;;11.35;;
48014;SDS011;33780;51.034;7.120;2024-02-28T01:48:46;29.08;;;13.07;;
48014;SDS011;33780;51.034;7.120;2024-02-28T01:51:11;29.10;;;12.95;;
48014;SDS011;33780;51.034;7.120;2024-02-28T01:53:37;26.80;;;12.50;;
48014;SDS011;33780;51.034;7.120;2024-02-28T01:56:03;32.63;;;13.10;;
48014;SDS011;33780;51.034;7.120;2024-02-28T01:58:28;32.15;;;13.00;;
48014;SDS011;33780;51.034;7.120;2024-02-28T02:00:54;30.10;;;14.10;;
48014;SDS011;33780;51.034;7.120;2024-02-28T02:03:21;33.97;;;13.50;;
48014;SDS011;33780;51.034;7.120;2024-02-28T02:05:46;31.27;;;13.68;;
48014;SDS011;33780;51.034;7.120;2024-02-28T02:08:11;34.22;;;13.55;;
48014;SDS011;33780;51.034;7.120;2024-02-28T02:10:36;32.30;;;13.27;;
48014;SDS011;33780;51.034;7.120;2024-02-28T02:13:05;33.00;;;14.32;;
48014;SDS011;33780;51.034;7.120;2024-02-28T02:15:31;35.30;;;14.32;;
48014;SDS011;33780;51.034;7.120;2024-02-28T02:17:56;41.38;;;14.82;;
48014;SDS011;33780;51.034;7.120;2024-02-28T02:20:22;29.98;;;13.40;;
48014;SDS011;33780;51.034;7.120;2024-02-28T02:22:47;34.15;;;14.23;;
48014;SDS011;33780;51.034;7.120;2024-02-28T02:25:13;32.58;;;13.50;;
48014;SDS011;33780;51.034;7.120;2024-02-28T02:27:38;33.50;;;13.52;;
48014;SDS011;33780;51.034;7.120;2024-02-28T02:30:04;30.92;;;13.55;;
48014;SDS011;33780;51.034;7.120;2024-02-28T02:32:31;30.05;;;12.95;;
48014;SDS011;33780;51.034;7.120;2024-02-28T02:34:57;33.72;;;14.35;;
48014;SDS011;33780;51.034;7.120;2024-02-28T02:37:22;33.30;;;14.63;;
48014;SDS011;33780;51.034;7.120;2024-02-28T02:39:47;30.35;;;13.75;;
48014;SDS011;33780;51.034;7.120;2024-02-28T02:42:13;26.27;;;12.85;;
48014;SDS011;33780;51.034;7.120;2024-02-28T02:44:41;29.98;;;13.95;;
48014;SDS011;33780;51.034;7.120;2024-02-28T02:47:07;35.67;;;14.48;;
48014;SDS011;33780;51.034;7.120;2024-02-28T02:49:32;32.70;;;14.35;;
48014;SDS011;33780;51.034;7.120;2024-02-28T02:51:57;29.13;;;12.73;;
48014;SDS011;33780;51.034;7.120;2024-02-28T02:54:23;29.00;;;13.55;;
48014;SDS011;33780;51.034;7.120;2024-02-28T02:56:48;30.10;;;14.27;;
48014;SDS011;33780;51.034;7.120;2024-02-28T02:59:13;28.67;;;13.38;;
48014;SDS011;33780;51.034;7.120;2024-02-28T03:01:39;28.58;;;13.65;;
48014;SDS011;33780;51.034;7.120;2024-02-28T03:04:04;29.90;;;13.68;;
48014;SDS011;33780;51.034;7.120;2024-02-28T03:06:30;28.15;;;12.88;;
48014;SDS011;33780;51.034;7.120;2024-02-28T03:08:55;28.27;;;12.93;;
48014;SDS011;33780;51.034;7.120;2024-02-28T03:11:20;29.85;;;13.35;;
48014;SDS011;33780;51.034;7.120;2024-02-28T03:13:46;25.40;;;12.52;;
48014;SDS011;33780;51.034;7.120;2024-02-28T03:16:11;27.38;;;12.82;;
48014;SDS011;33780;51.034;7.120;2024-02-28T03:18:36;28.83;;;13.25;;
48014;SDS011;33780;51.034;7.120;2024-02-28T03:21:02;24.77;;;12.38;;
48014;SDS011;33780;51.034;7.120;2024-02-28T03:23:28;27.92;;;13.00;;
48014;SDS011;33780;51.034;7.120;2024-02-28T03:25:53;30.15;;;14.07;;
48014;SDS011;33780;51.034;7.120;2024-02-28T03:28:19;26.27;;;12.95;;
48014;SDS011;33780;51.034;7.120;2024-02-28T03:30:44;29.67;;;13.35;;
48014;SDS011;33780;51.034;7.120;2024-02-28T03:33:10;27.92;;;12.52;;
48014;SDS011;33780;51.034;7.120;2024-02-28T03:35:35;29.05;;;12.77;;
48014;SDS011;33780;51.034;7.120;2024-02-28T03:38:00;25.95;;;12.45;;
48014;SDS011;33780;51.034;7.120;2024-02-28T03:40:26;28.27;;;13.15;;
48014;SDS011;33780;51.034;7.120;2024-02-28T03:42:51;28.92;;;12.93;;
48014;SDS011;33780;51.034;7.120;2024-02-28T03:45:16;28.33;;;13.60;;
48014;SDS011;33780;51.034;7.120;2024-02-28T03:47:42;32.70;;;14.35;;
48014;SDS011;33780;51.034;7.120;2024-02-28T03:50:07;32.35;;;13.63;;
48014;SDS011;33780;51.034;7.120;2024-02-28T03:52:33;30.10;;;13.82;;
48014;SDS011;33780;51.034;7.120;2024-02-28T03:54:58;28.90;;;14.02;;
48014;SDS011;33780;51.034;7.120;2024-02-28T03:57:24;29.00;;;13.23;;
48014;SDS011;33780;51.034;7.120;2024-02-28T03:59:49;29.77;;;14.32;;
48014;SDS011;33780;51.034;7.120;2024-02-28T04:02:14;27.38;;;13.05;;
48014;SDS011;33780;51.034;7.120;2024-02-28T04:04:40;26.92;;;13.05;;
48014;SDS011;33780;51.034;7.120;2024-02-28T04:07:05;28.73;;;13.43;;
48014;SDS011;33780;51.034;7.120;2024-02-28T04:09:30;27.77;;;12.68;;
48014;SDS011;33780;51.034;7.120;2024-02-28T04:11:56;28.63;;;13.07;;
48014;SDS011;33780;51.034;7.120;2024-02-28T04:14:21;28.05;;;13.30;;
48014;SDS011;33780;51.034;7.120;2024-02-28T04:16:47;26.95;;;13.48;;
48014;SDS011;33780;51.034;7.120;2024-02-28T04:19:15;31.13;;;13.93;;
48014;SDS011;33780;51.034;7.120;2024-02-28T04:21:40;30.88;;;13.63;;
48014;SDS011;33780;51.034;7.120;2024-02-28T04:24:06;31.45;;;14.13;;
48014;SDS011;33780;51.034;7.120;2024-02-28T04:26:32;28.40;;;13.43;;
48014;SDS011;33780;51.034;7.120;2024-02-28T04:28:57;29.70;;;13.80;;
48014;SDS011;33780;51.034;7.120;2024-02-28T04:31:22;30.20;;;14.82;;
48014;SDS011;33780;51.034;7.120;2024-02-28T04:33:48;36.25;;;14.60;;
48014;SDS011;33780;51.034;7.120;2024-02-28T04:36:13;35.58;;;14.18;;
48014;SDS011;33780;51.034;7.120;2024-02-28T04:38:40;33.50;;;14.43;;
48014;SDS011;33780;51.034;7.120;2024-02-28T04:41:05;33.88;;;14.43;;
48014;SDS011;33780;51.034;7.120;2024-02-28T04:43:30;33.03;;;14.43;;
48014;SDS011;33780;51.034;7.120;2024-02-28T04:45:55;34.97;;;14.05;;
48014;SDS011;33780;51.034;7.120;2024-02-28T04:48:21;34.92;;;15.00;;
48014;SDS011;33780;51.034;7.120;2024-02-28T04:50:46;31.95;;;14.55;;
48014;SDS011;33780;51.034;7.120;2024-02-28T04:53:11;34.58;;;14.73;;
48014;SDS011;33780;51.034;7.120;2024-02-28T04:55:37;32.47;;;14.25;;
48014;SDS011;33780;51.034;7.120;2024-02-28T04:58:02;32.60;;;15.10;;
48014;SDS011;33780;51.034;7.120;2024-02-28T05:00:27;31.17;;;15.32;;
48014;SDS011;33780;51.034;7.120;2024-02-28T05:02:53;35.15;;;15.20;;
48014;SDS011;33780;51.034;7.120;2024-02-28T05:05:18;33.85;;;14.93;;
48014;SDS011;33780;51.034;7.120;2024-02-28T05:07:43;33.38;;;14.88;;
48014;SDS011;33780;51.034;7.120;2024-02-28T05:10:09;35.25;;;15.00;;
48014;SDS011;33780;51.034;7.120;2024-02-28T05:12:34;35.63;;;15.65;;
48014;SDS011;33780;51.034;7.120;2024-02-28T05:14:59;36.05;;;15.55;;
48014;SDS011;33780;51.034;7.120;2024-02-28T05:17:25;33.80;;;14.98;;
48014;SDS011;33780;51.034;7.120;2024-02-28T05:19:50;32.78;;;14.45;;
48014;SDS011;33780;51.034;7.120;2024-02-28T05:22:15;32.67;;;14.38;;
48014;SDS011;33780;51.034;7.120;2024-02-28T05:24:41;36.35;;;15.93;;
48014;SDS011;33780;51.034;7.120;2024-02-28T05:27:08;33.30;;;16.00;;
48014;SDS011;33780;51.034;7.120;2024-02-28T05:29:34;36.03;;;15.90;;
48014;SDS011;33780;51.034;7.120;2024-02-28T05:31:59;34.40;;;15.23;;
48014;SDS011;33780;51.034;7.120;2024-02-28T05:34:24;32.35;;;14.32;;
48014;SDS011;33780;51.034;7.120;2024-02-28T05:36:50;32.33;;;15.10;;
48014;SDS011;33780;51.034;7.120;2024-02-28T05:39:15;35.63;;;15.65;;
48014;SDS011;33780;51.034;7.120;2024-02-28T05:41:40;36.40;;;16.23;;
48014;SDS011;33780;51.034;7.120;2024-02-28T05:44:06;35.90;;;15.80;;
48014;SDS011;33780;51.034;7.120;2024-02-28T05:46:31;37.17;;;15.40;;
48014;SDS011;33780;51.034;7.120;2024-02-28T05:48:57;38.13;;;14.88;;
48014;SDS011;33780;51.034;7.120;2024-02-28T05:51:22;33.90;;;15.50;;
48014;SDS011;33780;51.034;7.120;2024-02-28T05:53:47;34.63;;;16.50;;
48014;SDS011;33780;51.034;7.120;2024-02-28T05:56:13;35.88;;;15.75;;
48014;SDS011;33780;51.034;7.120;2024-02-28T05:58:42;34.20;;;15.73;;
48014;SDS011;33780;51.034;7.120;2024-02-28T06:01:08;33.58;;;15.52;;
48014;SDS011;33780;51.034;7.120;2024-02-28T06:03:35;35.50;;;15.80;;
48014;SDS011;33780;51.034;7.120;2024-02-28T06:06:00;36.03;;;16.00;;
48014;SDS011;33780;51.034;7.120;2024-02-28T06:08:26;37.25;;;16.42;;
48014;SDS011;33780;51.034;7.120;2024-02-28T06:10:51;40.05;;;17.75;;
48014;SDS011;33780;51.034;7.120;2024-02-28T06:13:17;40.95;;;18.00;;
48014;SDS011;33780;51.034;7.120;2024-02-28T06:15:43;38.35;;;17.17;;
48014;SDS011;33780;51.034;7.120;2024-02-28T06:18:08;38.17;;;16.80;;
48014;SDS011;33780;51.034;7.120;2024-02-28T06:20:34;44.17;;;18.40;;
48014;SDS011;33780;51.034;7.120;2024-02-28T06:22:59;44.05;;;19.15;;
48014;SDS011;33780;51.034;7.120;2024-02-28T06:25:25;44.63;;;18.67;;
48014;SDS011;33780;51.034;7.120;2024-02-28T06:27:52;44.22;;;18.80;;
48014;SDS011;33780;51.034;7.120;2024-02-28T06:30:18;42.17;;;18.98;;
48014;SDS011;33780;51.034;7.120;2024-02-28T06:32:43;40.90;;;18.40;;
48014;SDS011;33780;51.034;7.120;2024-02-28T06:35:09;45.55;;;19.90;;
48014;SDS011;33780;51.034;7.120;2024-02-28T06:37:34;47.22;;;20.55;;
48014;SDS011;33780;51.034;7.120;2024-02-28T06:40:00;41.25;;;18.48;;
48014;SDS011;33780;51.034;7.120;2024-02-28T06:42:27;44.47;;;19.48;;
48014;SDS011;33780;51.034;7.120;2024-02-28T06:44:52;50.00;;;21.63;;
48014;SDS011;33780;51.034;7.120;2024-02-28T06:47:17;48.72;;;21.63;;
48014;SDS011;33780;51.034;7.120;2024-02-28T06:49:43;51.50;;;22.35;;
48014;SDS011;33780;51.034;7.120;2024-02-28T06:52:09;50.60;;;21.95;;
48014;SDS011;33780;51.034;7.120;2024-02-28T06:54:34;49.15;;;21.15;;
48014;SDS011;33780;51.034;7.120;2024-02-28T06:57:00;50.53;;;22.15;;
48014;SDS011;33780;51.034;7.120;2024-02-28T06:59:27;50.17;;;22.80;;
48014;SDS011;33780;51.034;7.120;2024-02-28T07:01:52;53.80;;;24.00;;
48014;SDS011;33780;51.034;7.120;2024-02-28T07:04:18;51.67;;;22.65;;
48014;SDS011;33780;51.034;7.120;2024-02-28T07:06:43;51.50;;;23.25;;
48014;SDS011;33780;51.034;7.120;2024-02-28T07:09:08;53.97;;;23.42;;
48014;SDS011;33780;51.034;7.120;2024-02-28T07:11:34;53.60;;;22.92;;
48014;SDS011;33780;51.034;7.120;2024-02-28T07:14:00;54.20;;;24.02;;
48014;SDS011;33780;51.034;7.120;2024-02-28T07:16:28;55.85;;;24.23;;
48014;SDS011;33780;51.034;7.120;2024-02-28T07:18:54;52.17;;;23.13;;
48014;SDS011;33780;51.034;7.120;2024-02-28T07:21:19;53.63;;;23.98;;
48014;SDS011;33780;51.034;7.120;2024-02-28T07:23:45;53.30;;;23.00;;
48014;SDS011;33780;51.034;7.120;2024-02-28T07:26:14;54.03;;;23.63;;
48014;SDS011;33780;51.034;7.120;2024-02-28T07:28:40;53.70;;;23.38;;
48014;SDS011;33780;51.034;7.120;2024-02-28T07:31:05;52.08;;;22.23;;
48014;SDS011;33780;51.034;7.120;2024-02-28T07:33:31;54.22;;;23.58;;
48014;SDS011;33780;51.034;7.120;2024-02-28T07:35:56;51.25;;;22.85;;
48014;SDS011;33780;51.034;7.120;2024-02-28T07:38:25;54.15;;;23.25;;
48014;SDS011;33780;51.034;7.120;2024-02-28T07:40:52;53.58;;;23.77;;
48014;SDS011;33780;51.034;7.120;2024-02-28T07:43:18;52.97;;;23.73;;
48014;SDS011;33780;51.034;7.120;2024-02-28T07:45:43;48.15;;;22.92;;
48014;SDS011;33780;51.034;7.120;2024-02-28T07:48:08;55.13;;;24.27;;
48014;SDS011;33780;51.034;7.120;2024-02-28T07:50:34;54.65;;;22.98;;
48014;SDS011;33780;51.034;7.120;2024-02-28T07:52:59;55.10;;;23.60;;
48014;SDS011;33780;51.034;7.120;2024-02-28T07:55:24;52.97;;;23.80;;
48014;SDS011;33780;51.034;7.120;2024-02-28T07:57:50;49.50;;;22.92;;
48014;SDS011;33780;51.034;7.120;2024-02-28T08:00:18;55.10;;;23.42;;
48014;SDS011;33780;51.034;7.120;2024-02-28T08:02:45;50.45;;;23.00;;
48014;SDS011;33780;51.034;7.120;2024-02-28T08:05:10;49.33;;;23.17;;
48014;SDS011;33780;51.034;7.120;2024-02-28T08:07:36;54.00;;;22.88;;
48014;SDS011;33780;51.034;7.120;2024-02-28T08:10:02;49.85;;;21.95;;
48014;SDS011;33780;51.034;7.120;2024-02-28T08:12:30;54.80;;;24.08;;
48014;SDS011;33780;51.034;7.120;2024-02-28T08:14:55;52.35;;;22.80;;
48014;SDS011;33780;51.034;7.120;2024-02-28T08:17:21;53.47;;;22.10;;
48014;SDS011;33780;51.034;7.120;2024-02-28T08:19:46;49.92;;;22.08;;
48014;SDS011;33780;51.034;7.120;2024-02-28T08:22:11;49.50;;;22.48;;
48014;SDS011;33780;51.034;7.120;2024-02-28T08:24:37;50.15;;;22.02;;
48014;SDS011;33780;51.034;7.120;2024-02-28T08:27:02;47.70;;;21.73;;
48014;SDS011;33780;51.034;7.120;2024-02-28T08:29:28;48.28;;;21.45;;
48014;SDS011;33780;51.034;7.120;2024-02-28T08:31:53;48.63;;;22.20;;
48014;SDS011;33780;51.034;7.120;2024-02-28T08:34:18;46.85;;;21.23;;
48014;SDS011;33780;51.034;7.120;2024-02-28T08:36:44;48.85;;;21.02;;
48014;SDS011;33780;51.034;7.120;2024-02-28T08:39:09;48.33;;;20.48;;
48014;SDS011;33780;51.034;7.120;2024-02-28T08:41:34;47.75;;;21.17;;
48014;SDS011;33780;51.034;7.120;2024-02-28T08:44:00;47.35;;;21.42;;
48014;SDS011;33780;51.034;7.120;2024-02-28T08:46:26;43.72;;;20.80;;
48014;SDS011;33780;51.034;7.120;2024-02-28T08:48:51;45.88;;;21.17;;
48014;SDS011;33780;51.034;7.120;2024-02-28T08:51:17;46.50;;;20.77;;
48014;SDS011;33780;51.034;7.120;2024-02-28T08:53:42;47.60;;;21.17;;
48014;SDS011;33780;51.034;7.120;2024-02-28T08:56:07;43.13;;;20.52;;
48014;SDS011;33780;51.034;7.120;2024-02-28T08:58:33;43.40;;;19.73;;
48014;SDS011;33780;51.034;7.120;2024-02-28T09:00:58;48.03;;;20.95;;
48014;SDS011;33780;51.034;7.120;2024-02-28T09:03:23;44.53;;;20.50;;
48014;SDS011;33780;51.034;7.120;2024-02-28T09:05:49;47.05;;;19.98;;
48014;SDS011;33780;51.034;7.120;2024-02-28T09:08:14;44.78;;;20.92;;
48014;SDS011;33780;51.034;7.120;2024-02-28T09:10:39;44.80;;;20.48;;
48014;SDS011;33780;51.034;7.120;2024-02-28T09:13:05;48.08;;;21.05;;
48014;SDS011;33780;51.034;7.120;2024-02-28T09:15:31;41.50;;;19.60;;
48014;SDS011;33780;51.034;7.120;2024-02-28T09:17:57;43.70;;;20.27;;
48014;SDS011;33780;51.034;7.120;2024-02-28T09:20:22;41.90;;;19.33;;
48014;SDS011;33780;51.034;7.120;2024-02-28T09:22:48;40.53;;;18.48;;
48014;SDS011;33780;51.034;7.120;2024-02-28T09:25:13;39.42;;;18.98;;
48014;SDS011;33780;51.034;7.120;2024-02-28T09:27:40;44.65;;;19.70;;
48014;SDS011;33780;51.034;7.120;2024-02-28T09:30:06;43.72;;;19.70;;
48014;SDS011;33780;51.034;7.120;2024-02-28T09:32:32;43.97;;;19.23;;
48014;SDS011;33780;51.034;7.120;2024-02-28T09:34:57;42.95;;;19.42;;
48014;SDS011;33780;51.034;7.120;2024-02-28T09:37:23;39.05;;;18.38;;
48014;SDS011;33780;51.034;7.120;2024-02-28T09:39:50;39.13;;;18.23;;
48014;SDS011;33780;51.034;7.120;2024-02-28T09:42:15;41.83;;;19.00;;
48014;SDS011;33780;51.034;7.120;2024-02-28T09:44:41;41.78;;;18.70;;
48014;SDS011;33780;51.034;7.120;2024-02-28T09:47:08;41.92;;;18.85;;
48014;SDS011;33780;51.034;7.120;2024-02-28T09:49:34;39.53;;;18.23;;
48014;SDS011;33780;51.034;7.120;2024-02-28T09:52:02;41.40;;;19.48;;
48014;SDS011;33780;51.034;7.120;2024-02-28T09:54:28;42.90;;;19.25;;
48014;SDS011;33780;51.034;7.120;2024-02-28T09:56:54;37.53;;;17.75;;
48014;SDS011;33780;51.034;7.120;2024-02-28T09:59:20;39.92;;;18.83;;
48014;SDS011;33780;51.034;7.120;2024-02-28T10:01:48;38.38;;;18.00;;
48014;SDS011;33780;51.034;7.120;2024-02-28T10:04:20;39.08;;;18.27;;
48014;SDS011;33780;51.034;7.120;2024-02-28T10:06:45;35.30;;;17.42;;
48014;SDS011;33780;51.034;7.120;2024-02-28T10:09:12;36.05;;;17.85;;
48014;SDS011;33780;51.034;7.120;2024-02-28T10:11:38;36.13;;;17.92;;
48014;SDS011;33780;51.034;7.120;2024-02-28T10:14:08;37.10;;;17.90;;
48014;SDS011;33780;51.034;7.120;2024-02-28T10:16:33;36.80;;;17.70;;
48014;SDS011;33780;51.034;7.120;2024-02-28T10:18:59;36.03;;;17.65;;
48014;SDS011;33780;51.034;7.120;2024-02-28T10:21:24;39.35;;;17.55;;
48014;SDS011;33780;51.034;7.120;2024-02-28T10:23:51;38.42;;;17.98;;
48014;SDS011;33780;51.034;7.120;2024-02-28T10:26:16;37.30;;;18.17;;
48014;SDS011;33780;51.034;7.120;2024-02-28T10:28:42;36.03;;;17.67;;
48014;SDS011;33780;51.034;7.120;2024-02-28T10:31:09;36.20;;;18.40;;
48014;SDS011;33780;51.034;7.120;2024-02-28T10:33:35;36.03;;;18.02;;
48014;SDS011;33780;51.034;7.120;2024-02-28T10:36:04;34.47;;;16.70;;
48014;SDS011;33780;51.034;7.120;2024-02-28T10:38:31;34.35;;;16.95;;
48014;SDS011;33780;51.034;7.120;2024-02-28T10:41:01;31.88;;;16.92;;
48014;SDS011;33780;51.034;7.120;2024-02-28T10:43:30;34.50;;;17.40;;
48014;SDS011;33780;51.034;7.120;2024-02-28T10:45:59;40.15;;;16.92;;
48014;SDS011;33780;51.034;7.120;2024-02-28T10:48:25;32.30;;;16.25;;
48014;SDS011;33780;51.034;7.120;2024-02-28T10:50:51;33.13;;;16.58;;
48014;SDS011;33780;51.034;7.120;2024-02-28T10:53:21;31.95;;;16.35;;
48014;SDS011;33780;51.034;7.120;2024-02-28T10:55:48;33.85;;;16.35;;
48014;SDS011;33780;51.034;7.120;2024-02-28T10:58:14;32.45;;;16.20;;
48014;SDS011;33780;51.034;7.120;2024-02-28T11:00:41;29.65;;;15.80;;
48014;SDS011;33780;51.034;7.120;2024-02-28T11:03:09;32.42;;;16.27;;
48014;SDS011;33780;51.034;7.120;2024-02-28T11:05:42;30.70;;;15.50;;
48014;SDS011;33780;51.034;7.120;2024-02-28T11:08:22;31.60;;;16.00;;
48014;SDS011;33780;51.034;7.120;2024-02-28T11:10:58;32.05;;;16.10;;
48014;SDS011;33780;51.034;7.120;2024-02-28T11:13:29;31.13;;;16.23;;
48014;SDS011;33780;51.034;7.120;2024-02-28T11:16:06;30.73;;;15.88;;
48014;SDS011;33780;51.034;7.120;2024-02-28T11:18:32;28.60;;;15.20;;
48014;SDS011;33780;51.034;7.120;2024-02-28T11:20:58;31.10;;;16.10;;
48014;SDS011;33780;51.034;7.120;2024-02-28T11:23:23;33.05;;;16.17;;
48014;SDS011;33780;51.034;7.120;2024-02-28T11:25:52;29.42;;;15.85;;
48014;SDS011;33780;51.034;7.120;2024-02-28T11:28:18;31.08;;;15.80;;
48014;SDS011;33780;51.034;7.120;2024-02-28T11:30:49;32.28;;;15.52;;
48014;SDS011;33780;51.034;7.120;2024-02-28T11:33:14;34.10;;;17.00;;
48014;SDS011;33780;51.034;7.120;2024-02-28T11:35:40;31.80;;;17.52;;
48014;SDS011;33780;51.034;7.120;2024-02-28T11:38:06;33.00;;;16.02;;
48014;SDS011;33780;51.034;7.120;2024-02-28T11:40:32;30.77;;;15.20;;
48014;SDS011;33780;51.034;7.120;2024-02-28T11:42:57;30.45;;;15.57;;
48014;SDS011;33780;51.034;7.120;2024-02-28T11:45:24;30.45;;;16.02;;
48014;SDS011;33780;51.034;7.120;2024-02-28T11:47:50;32.88;;;16.05;;
48014;SDS011;33780;51.034;7.120;2024-02-28T11:50:15;32.97;;;16.60;;
48014;SDS011;33780;51.034;7.120;2024-02-28T11:52:43;31.02;;;16.13;;
48014;SDS011;33780;51.034;7.120;2024-02-28T11:55:08;32.75;;;16.63;;
48014;SDS011;33780;51.034;7.120;2024-02-28T11:57:33;32.28;;;15.77;;
48014;SDS011;33780;51.034;7.120;2024-02-28T12:00:03;29.48;;;15.20;;
48014;SDS011;33780;51.034;7.120;2024-02-28T12:02:29;29.73;;;15.63;;
48014;SDS011;33780;51.034;7.120;2024-02-28T12:04:55;27.27;;;14.60;;
48014;SDS011;33780;51.034;7.120;2024-02-28T12:07:25;29.20;;;15.00;;
48014;SDS011;33780;51.034;7.120;2024-02-28T12:09:50;29.60;;;15.32;;
48014;SDS011;33780;51.034;7.120;2024-02-28T12:12:16;27.40;;;15.00;;
48014;SDS011;33780;51.034;7.120;2024-02-28T12:14:43;26.98;;;14.98;;
48014;SDS011;33780;51.034;7.120;2024-02-28T12:17:10;29.67;;;15.55;;
48014;SDS011;33780;51.034;7.120;2024-02-28T12:19:35;30.25;;;15.25;;
48014;SDS011;33780;51.034;7.120;2024-02-28T12:22:01;27.92;;;14.75;;
48014;SDS011;33780;51.034;7.120;2024-02-28T12:24:26;32.40;;;16.10;;
48014;SDS011;33780;51.034;7.120;2024-02-28T12:26:51;30.75;;;15.55;;
48014;SDS011;33780;51.034;7.120;2024-02-28T12:29:17;30.25;;;16.30;;
48014;SDS011;33780;51.034;7.120;2024-02-28T12:31:43;28.35;;;14.98;;
48014;SDS011;33780;51.034;7.120;2024-02-28T12:34:08;26.52;;;14.65;;
48014;SDS011;33780;51.034;7.120;2024-02-28T12:36:33;27.73;;;14.65;;
48014;SDS011;33780;51.034;7.120;2024-02-28T12:38:59;25.65;;;13.55;;
48014;SDS011;33780;51.034;7.120;2024-02-28T12:41:25;24.17;;;13.38;;
48014;SDS011;33780;51.034;7.120;2024-02-28T12:43:51;26.70;;;14.15;;
48014;SDS011;33780;51.034;7.120;2024-02-28T12:46:16;24.92;;;13.30;;
48014;SDS011;33780;51.034;7.120;2024-02-28T12:48:42;22.80;;;12.73;;
48014;SDS011;33780;51.034;7.120;2024-02-28T12:51:08;29.02;;;15.27;;
48014;SDS011;33780;51.034;7.120;2024-02-28T12:53:38;26.27;;;14.20;;
48014;SDS011;33780;51.034;7.120;2024-02-28T12:56:03;28.25;;;14.20;;
48014;SDS011;33780;51.034;7.120;2024-02-28T12:58:29;28.55;;;14.55;;
48014;SDS011;33780;51.034;7.120;2024-02-28T13:00:54;27.50;;;14.85;;
48014;SDS011;33780;51.034;7.120;2024-02-28T13:03:20;24.85;;;13.27;;
48014;SDS011;33780;51.034;7.120;2024-02-28T13:05:45;24.77;;;13.43;;
48014;SDS011;33780;51.034;7.120;2024-02-28T13:08:10;24.00;;;12.60;;
48014;SDS011;33780;51.034;7.120;2024-02-28T13:10:36;24.73;;;13.55;;
48014;SDS011;33780;51.034;7.120;2024-02-28T13:13:05;26.33;;;14.57;;
48014;SDS011;33780;51.034;7.120;2024-02-28T13:15:32;25.33;;;14.20;;
48014;SDS011;33780;51.034;7.120;2024-02-28T13:17:57;23.52;;;13.10;;
48014;SDS011;33780;51.034;7.120;2024-02-28T13:20:23;25.15;;;13.15;;
48014;SDS011;33780;51.034;7.120;2024-02-28T13:22:48;26.13;;;14.00;;
48014;SDS011;33780;51.034;7.120;2024-02-28T13:25:13;25.40;;;13.65;;
48014;SDS011;33780;51.034;7.120;2024-02-28T13:27:40;27.15;;;14.80;;
48014;SDS011;33780;51.034;7.120;2024-02-28T13:30:06;27.60;;;14.00;;
48014;SDS011;33780;51.034;7.120;2024-02-28T13:32:32;23.80;;;13.13;;
48014;SDS011;33780;51.034;7.120;2024-02-28T13:34:57;27.08;;;14.13;;
48014;SDS011;33780;51.034;7.120;2024-02-28T13:37:22;22.55;;;12.45;;
48014;SDS011;33780;51.034;7.120;2024-02-28T13:39:48;23.73;;;12.65;;
48014;SDS011;33780;51.034;7.120;2024-02-28T13:42:16;21.33;;;11.73;;
48014;SDS011;33780;51.034;7.120;2024-02-28T13:44:45;22.55;;;12.68;;
48014;SDS011;33780;51.034;7.120;2024-02-28T13:47:10;26.83;;;14.65;;
48014;SDS011;33780;51.034;7.120;2024-02-28T13:49:37;26.63;;;13.88;;
48014;SDS011;33780;51.034;7.120;2024-02-28T13:52:02;25.67;;;12.60;;
48014;SDS011;33780;51.034;7.120;2024-02-28T13:54:27;23.58;;;12.70;;
48014;SDS011;33780;51.034;7.120;2024-02-28T13:56:53;24.15;;;13.63;;
48014;SDS011;33780;51.034;7.120;2024-02-28T13:59:18;28.00;;;14.98;;
48014;SDS011;33780;51.034;7.120;2024-02-28T14:01:43;29.58;;;14.88;;
48014;SDS011;33780;51.034;7.120;2024-02-28T14:04:09;26.70;;;14.73;;
48014;SDS011;33780;51.034;7.120;2024-02-28T14:06:34;28.92;;;15.02;;
48014;SDS011;33780;51.034;7.120;2024-02-28T14:08:59;24.75;;;13.23;;
48014;SDS011;33780;51.034;7.120;2024-02-28T14:11:25;24.77;;;13.25;;
48014;SDS011;33780;51.034;7.120;2024-02-28T14:13:50;22.67;;;12.07;;
48014;SDS011;33780;51.034;7.120;2024-02-28T14:16:16;21.27;;;12.13;;